createdAt,value
2022-12-11T00:01:10.524Z,0.40
2022-12-11T00:03:39.106Z,0.40
2022-12-11T00:06:08.168Z,0.40
2022-12-11T00:08:36.234Z,0.40
2022-12-11T00:11:04.703Z,0.40
2022-12-11T00:13:32.680Z,0.30
2022-12-11T00:16:02.500Z,0.30
2022-12-11T00:18:30.479Z,0.30
2022-12-11T00:21:01.449Z,0.30
2022-12-11T00:23:29.529Z,0.40
2022-12-11T00:25:57.644Z,0.40
2022-12-11T00:28:25.597Z,0.40
2022-12-11T00:30:53.592Z,0.40
2022-12-11T00:33:22.908Z,0.40
2022-12-11T00:35:50.836Z,0.30
2022-12-11T00:38:21.459Z,0.30
2022-12-11T00:40:49.872Z,0.30
2022-12-11T00:43:18.721Z,0.30
2022-12-11T00:45:48.485Z,0.30
2022-12-11T00:48:16.518Z,0.30
2022-12-11T00:50:45.854Z,0.40
2022-12-11T00:53:13.846Z,0.30
2022-12-11T00:55:43.850Z,0.40
2022-12-11T00:58:12.743Z,0.40
2022-12-11T01:00:43.512Z,0.50
2022-12-11T01:03:12.343Z,0.50
2022-12-11T01:05:40.305Z,0.50
2022-12-11T01:08:09.716Z,0.40
2022-12-11T01:10:36.751Z,0.50
2022-12-11T01:13:06.479Z,0.40
2022-12-11T01:15:41.539Z,0.40
2022-12-11T01:18:10.918Z,0.50
2022-12-11T01:20:40.147Z,0.50
2022-12-11T01:23:12.389Z,0.60
2022-12-11T01:25:40.889Z,0.60
2022-12-11T01:28:09.296Z,0.60
2022-12-11T01:30:37.641Z,0.60
2022-12-11T01:33:05.686Z,0.60
2022-12-11T01:35:34.055Z,0.70
2022-12-11T01:38:02.846Z,0.70
2022-12-11T01:40:32.728Z,0.70
2022-12-11T01:43:00.812Z,0.60
2022-12-11T01:45:41.063Z,0.70
2022-12-11T01:48:12.418Z,0.60
2022-12-11T01:50:45.260Z,0.60
2022-12-11T01:53:18.615Z,0.60
2022-12-11T01:55:49.550Z,0.70
2022-12-11T01:58:18.710Z,0.60
2022-12-11T02:00:46.794Z,0.60
2022-12-11T02:03:15.012Z,0.60
2022-12-11T02:05:43.086Z,0.70
2022-12-11T02:08:11.415Z,0.70
2022-12-11T02:11:00.744Z,0.70
2022-12-11T02:13:35.374Z,0.70
2022-12-11T02:16:11.311Z,0.70
2022-12-11T02:18:48.000Z,0.70
2022-12-11T02:21:23.220Z,0.70
2022-12-11T02:24:24.259Z,0.70
2022-12-11T02:27:12.343Z,0.70
2022-12-11T02:29:50.568Z,0.70
2022-12-11T02:32:23.836Z,0.70
2022-12-11T02:34:58.764Z,0.70
2022-12-11T02:37:30.959Z,0.70
2022-12-11T02:39:59.219Z,0.70
2022-12-11T02:42:32.673Z,0.80
2022-12-11T02:45:04.200Z,0.80
2022-12-11T02:47:34.380Z,0.80
2022-12-11T02:50:04.887Z,0.70
2022-12-11T02:52:36.602Z,0.80
2022-12-11T02:55:07.343Z,0.80
2022-12-11T02:57:40.771Z,0.80
2022-12-11T03:00:12.123Z,0.80
2022-12-11T03:02:41.341Z,0.80
2022-12-11T03:05:10.964Z,0.70
2022-12-11T03:07:41.383Z,0.80
2022-12-11T03:10:11.955Z,0.80
2022-12-11T03:12:43.858Z,0.80
2022-12-11T03:15:16.887Z,0.70
2022-12-11T03:17:56.052Z,0.80
2022-12-11T03:20:35.724Z,0.80
2022-12-11T03:23:10.831Z,0.80
2022-12-11T03:25:45.639Z,0.80
2022-12-11T03:28:17.282Z,0.80
2022-12-11T03:30:49.647Z,0.80
2022-12-11T03:33:23.103Z,0.80
2022-12-11T03:35:54.955Z,0.80
2022-12-11T03:38:27.820Z,0.80
2022-12-11T03:40:58.425Z,0.80
2022-12-11T03:43:29.691Z,0.80
2022-12-11T03:46:01.551Z,0.80
2022-12-11T03:48:35.550Z,0.80
2022-12-11T03:51:06.342Z,0.80
2022-12-11T03:53:35.335Z,0.80
2022-12-11T03:56:04.926Z,0.80
2022-12-11T03:58:33.238Z,0.90
2022-12-11T04:01:02.882Z,0.90
2022-12-11T04:03:30.858Z,0.90
2022-12-11T04:05:58.771Z,0.80
2022-12-11T04:08:26.826Z,0.80
2022-12-11T04:11:15.003Z,0.90
2022-12-11T04:13:43.720Z,0.90
2022-12-11T04:16:12.139Z,0.80
2022-12-11T04:18:57.460Z,0.80
2022-12-11T04:21:43.079Z,0.90
2022-12-11T04:24:17.045Z,0.90
2022-12-11T04:26:46.262Z,0.80
2022-12-11T04:29:14.811Z,0.90
2022-12-11T04:31:45.779Z,0.80
2022-12-11T04:34:13.733Z,0.80
2022-12-11T04:36:41.793Z,0.80
2022-12-11T04:39:09.828Z,0.80
2022-12-11T04:41:38.889Z,0.80
2022-12-11T04:44:06.910Z,0.80
2022-12-11T04:46:35.082Z,0.80
2022-12-11T04:49:04.515Z,0.70
2022-12-11T04:51:32.501Z,0.70
2022-12-11T04:54:00.488Z,0.80
2022-12-11T04:56:28.447Z,0.70
2022-12-11T04:58:56.452Z,0.70
2022-12-11T05:01:24.717Z,0.70
2022-12-11T05:03:52.698Z,0.70
2022-12-11T05:06:38.854Z,0.70
2022-12-11T05:09:07.203Z,0.70
2022-12-11T05:11:35.121Z,0.70
2022-12-11T05:14:03.099Z,0.70
2022-12-11T05:16:31.152Z,0.70
2022-12-11T05:18:59.198Z,0.70
2022-12-11T05:21:34.647Z,0.70
2022-12-11T05:24:03.149Z,0.60
2022-12-11T05:26:31.147Z,0.70
2022-12-11T05:29:00.617Z,0.70
2022-12-11T05:31:28.964Z,0.70
2022-12-11T05:33:57.089Z,0.70
2022-12-11T05:36:27.005Z,0.80
2022-12-11T05:38:57.175Z,0.80
2022-12-11T05:41:27.416Z,0.80
2022-12-11T05:43:55.489Z,0.80
2022-12-11T05:46:25.127Z,0.80
2022-12-11T05:48:55.255Z,0.80
2022-12-11T05:51:23.724Z,0.70
2022-12-11T05:53:52.892Z,0.80
2022-12-11T05:56:24.040Z,0.80
2022-12-11T05:58:52.841Z,0.80
2022-12-11T06:01:23.054Z,0.80
2022-12-11T06:03:51.072Z,0.70
2022-12-11T06:06:19.023Z,0.80
2022-12-11T06:08:47.252Z,0.70
2022-12-11T06:11:20.922Z,0.80
2022-12-11T06:13:53.712Z,0.80
2022-12-11T06:16:22.896Z,0.80
2022-12-11T06:18:50.958Z,0.80
2022-12-11T06:21:21.685Z,0.80
2022-12-11T06:23:51.915Z,0.80
2022-12-11T06:26:21.374Z,0.80
2022-12-11T06:28:49.852Z,0.80
2022-12-11T06:31:20.198Z,0.80
2022-12-11T06:33:48.351Z,0.80
2022-12-11T06:36:18.015Z,0.80
2022-12-11T06:38:46.079Z,0.80
2022-12-11T06:41:14.493Z,0.90
2022-12-11T06:43:43.913Z,0.80
2022-12-11T06:46:14.414Z,0.80
2022-12-11T06:48:44.439Z,0.90
2022-12-11T06:51:14.001Z,0.90
2022-12-11T06:53:42.728Z,0.90
2022-12-11T06:56:12.486Z,0.80
2022-12-11T06:58:43.484Z,0.80
2022-12-11T07:01:16.639Z,0.90
2022-12-11T07:03:46.219Z,0.80
2022-12-11T07:06:14.512Z,0.90
2022-12-11T07:08:43.220Z,0.90
2022-12-11T07:11:13.446Z,0.90
2022-12-11T07:13:42.102Z,0.90
2022-12-11T07:16:11.744Z,0.90
2022-12-11T07:18:41.378Z,0.90
2022-12-11T07:21:13.079Z,0.90
2022-12-11T07:23:41.511Z,0.90
2022-12-11T07:26:11.783Z,0.90
2022-12-11T07:28:40.177Z,0.90
2022-12-11T07:31:08.723Z,0.90
2022-12-11T07:33:36.836Z,0.90
2022-12-11T07:36:05.868Z,0.90
2022-12-11T07:38:35.326Z,0.90
2022-12-11T07:41:17.667Z,0.90
2022-12-11T07:43:54.009Z,0.80
2022-12-11T07:46:24.814Z,0.90
2022-12-11T07:48:52.976Z,0.80
2022-12-11T07:51:29.411Z,0.80
2022-12-11T07:54:00.447Z,0.80
2022-12-11T07:56:29.702Z,0.90
2022-12-11T07:58:59.751Z,0.80
2022-12-11T08:01:29.564Z,0.80
2022-12-11T08:03:58.327Z,0.80
2022-12-11T08:06:28.476Z,0.90
2022-12-11T08:08:58.027Z,0.80
2022-12-11T08:11:26.544Z,0.90
2022-12-11T08:13:55.409Z,0.90
2022-12-11T08:16:24.238Z,0.80
2022-12-11T08:18:52.830Z,0.90
2022-12-11T08:21:22.621Z,0.90
2022-12-11T08:23:51.160Z,0.90
2022-12-11T08:26:22.468Z,0.90
2022-12-11T08:28:50.609Z,0.90
2022-12-11T08:31:19.435Z,0.90
2022-12-11T08:33:48.721Z,0.90
2022-12-11T08:36:19.461Z,0.90
2022-12-11T08:38:48.154Z,0.90
2022-12-11T08:41:17.542Z,0.80
2022-12-11T08:43:48.193Z,1.00
2022-12-11T08:46:16.888Z,0.90
2022-12-11T08:48:45.340Z,0.90
2022-12-11T08:51:16.200Z,0.90
2022-12-11T08:53:46.105Z,1.00
2022-12-11T08:56:16.888Z,0.90
2022-12-11T08:58:46.714Z,0.90
2022-12-11T09:01:15.928Z,0.80
2022-12-11T09:03:44.456Z,0.90
2022-12-11T09:06:14.109Z,0.90
2022-12-11T09:08:47.215Z,0.90
2022-12-11T09:11:20.085Z,0.90
2022-12-11T09:13:50.008Z,0.90
2022-12-11T09:16:20.258Z,0.90
2022-12-11T09:18:50.113Z,0.80
2022-12-11T09:21:20.335Z,0.80
2022-12-11T09:23:50.095Z,0.90
2022-12-11T09:26:20.061Z,0.90
2022-12-11T09:28:51.227Z,1.10
2022-12-11T09:31:23.470Z,1.00
2022-12-11T09:33:52.291Z,0.90
2022-12-11T09:36:20.379Z,0.90
2022-12-11T09:38:48.655Z,0.90
2022-12-11T09:41:36.148Z,1.00
2022-12-11T09:44:16.441Z,1.10
2022-12-11T09:46:45.864Z,1.00
2022-12-11T09:49:23.179Z,0.90
2022-12-11T09:51:59.461Z,0.80
2022-12-11T09:54:49.921Z,0.80
2022-12-11T09:57:32.682Z,0.80
2022-12-11T10:00:28.472Z,0.90
2022-12-11T10:03:12.368Z,0.90
2022-12-11T10:05:52.959Z,1.00
2022-12-11T10:08:28.514Z,1.00
2022-12-11T10:11:06.794Z,0.90
2022-12-11T10:13:40.163Z,0.90
2022-12-11T10:16:20.907Z,1.00
2022-12-11T10:18:50.328Z,0.90
2022-12-11T10:21:20.187Z,0.90
2022-12-11T10:23:54.742Z,0.80
2022-12-11T10:26:40.766Z,0.80
2022-12-11T10:29:15.956Z,0.70
2022-12-11T10:31:52.773Z,0.60
2022-12-11T10:34:29.845Z,0.70
2022-12-11T10:37:00.525Z,0.60
2022-12-11T10:39:28.973Z,0.60
2022-12-11T10:41:58.080Z,0.70
2022-12-11T10:44:30.568Z,0.70
2022-12-11T10:47:10.644Z,0.70
2022-12-11T10:49:43.674Z,0.70
2022-12-11T10:52:13.630Z,0.80
2022-12-11T10:54:44.610Z,0.90
2022-12-11T10:57:15.842Z,0.80
2022-12-11T10:59:47.843Z,0.90
2022-12-11T11:02:24.853Z,1.00
2022-12-11T11:04:54.152Z,0.80
2022-12-11T11:07:24.635Z,0.80
2022-12-11T11:10:04.119Z,0.90
2022-12-11T11:12:37.931Z,0.90
2022-12-11T11:15:07.842Z,0.90
2022-12-11T11:17:54.238Z,0.80
2022-12-11T11:20:25.687Z,0.80
2022-12-11T11:22:55.997Z,0.80
2022-12-11T11:25:26.302Z,0.80
2022-12-11T11:27:56.498Z,0.70
2022-12-11T11:30:26.407Z,0.70
2022-12-11T11:33:00.750Z,0.80
2022-12-11T11:35:30.846Z,0.90
2022-12-11T11:38:04.754Z,0.90
2022-12-11T11:40:37.975Z,0.90
2022-12-11T11:43:16.655Z,0.90
2022-12-11T11:45:52.510Z,0.90
2022-12-11T11:48:32.108Z,0.90
2022-12-11T11:51:15.146Z,0.80
2022-12-11T11:53:48.826Z,0.80
2022-12-11T11:56:22.880Z,0.80
2022-12-11T11:59:02.180Z,0.80
2022-12-11T12:01:30.661Z,0.90
2022-12-11T12:04:02.392Z,1.00
2022-12-11T12:06:54.519Z,1.20
2022-12-11T12:09:39.017Z,1.30
2022-12-11T12:12:20.957Z,1.30
2022-12-11T12:15:03.042Z,1.30
2022-12-11T12:17:41.157Z,1.20
2022-12-11T12:20:18.550Z,1.20
2022-12-11T12:23:01.425Z,1.20
2022-12-11T12:25:39.913Z,1.20
2022-12-11T12:28:21.805Z,1.40
2022-12-11T12:31:04.297Z,1.40
2022-12-11T12:33:46.017Z,1.40
2022-12-11T12:36:22.969Z,1.30
2022-12-11T12:38:56.127Z,1.30
2022-12-11T12:44:21.435Z,1.20
2022-12-11T12:46:58.297Z,1.30
2022-12-11T12:49:35.307Z,1.30
2022-12-11T12:52:07.692Z,1.20
2022-12-11T12:54:38.008Z,1.20
2022-12-11T12:57:06.703Z,1.30
2022-12-11T12:59:34.712Z,1.30
2022-12-11T13:02:04.640Z,1.30
2022-12-11T13:07:30.868Z,1.40
2022-12-11T13:10:06.533Z,1.40
2022-12-11T13:12:42.847Z,1.40
2022-12-11T13:15:44.349Z,1.40
2022-12-11T13:18:34.877Z,1.40
2022-12-11T13:21:04.035Z,1.40
2022-12-11T13:23:34.789Z,1.30
2022-12-11T13:26:05.303Z,1.20
2022-12-11T13:28:46.512Z,1.30
2022-12-11T13:31:34.823Z,1.40
2022-12-11T13:34:16.508Z,1.40
2022-12-11T13:36:49.504Z,1.40
2022-12-11T13:39:20.971Z,1.40
2022-12-11T13:41:53.266Z,1.30
2022-12-11T13:44:27.135Z,1.30
2022-12-11T13:46:57.433Z,1.20
2022-12-11T13:49:27.522Z,1.20
2022-12-11T13:51:59.002Z,1.30
2022-12-11T13:54:29.756Z,1.30
2022-12-11T13:57:01.170Z,1.30
2022-12-11T13:59:32.706Z,1.20
2022-12-11T14:02:06.160Z,1.30
2022-12-11T14:04:35.998Z,1.30
2022-12-11T14:07:08.604Z,1.30
2022-12-11T14:09:41.345Z,1.20
2022-12-11T14:12:17.633Z,1.20
2022-12-11T14:14:48.150Z,1.20
2022-12-11T14:17:19.253Z,1.20
2022-12-11T14:19:48.773Z,1.30
2022-12-11T14:22:21.628Z,1.20
2022-12-11T14:24:52.405Z,1.20
2022-12-11T14:27:21.385Z,1.10
2022-12-11T14:29:50.187Z,1.10
2022-12-11T14:32:22.556Z,1.00
2022-12-11T14:34:52.212Z,1.00
2022-12-11T14:37:24.176Z,1.00
2022-12-11T14:39:58.736Z,1.00
2022-12-11T14:42:30.876Z,1.00
2022-12-11T14:45:04.382Z,0.90
2022-12-11T14:47:38.778Z,0.90
2022-12-11T14:50:11.088Z,0.90
2022-12-11T14:52:43.213Z,0.80
2022-12-11T14:55:19.271Z,0.80
2022-12-11T14:57:49.692Z,0.80
2022-12-11T15:00:25.687Z,0.80
2022-12-11T15:03:02.255Z,0.80
2022-12-11T15:05:35.784Z,0.80
2022-12-11T15:08:24.944Z,0.70
2022-12-11T15:11:04.826Z,0.70
2022-12-11T15:13:34.023Z,0.70
2022-12-11T15:16:03.717Z,0.80
2022-12-11T15:18:34.281Z,0.70
2022-12-11T15:21:05.106Z,0.70
2022-12-11T15:23:33.719Z,0.70
2022-12-11T15:26:03.449Z,0.70
2022-12-11T15:28:34.149Z,0.70
2022-12-11T15:31:04.801Z,0.80
2022-12-11T15:33:34.752Z,0.70
2022-12-11T15:36:06.102Z,0.80
2022-12-11T15:38:36.731Z,0.70
2022-12-11T15:41:10.459Z,0.70
2022-12-11T15:43:39.470Z,0.70
2022-12-11T15:46:07.637Z,0.70
2022-12-11T15:48:35.760Z,0.70
2022-12-11T15:51:04.537Z,0.70
2022-12-11T15:53:32.506Z,0.70
2022-12-11T15:56:00.587Z,0.70
2022-12-11T15:58:30.757Z,0.70
2022-12-11T16:00:59.027Z,0.80
2022-12-11T16:03:27.029Z,0.80
2022-12-11T16:05:55.035Z,0.80
2022-12-11T16:08:24.715Z,0.70
2022-12-11T16:10:55.114Z,0.80
2022-12-11T16:13:32.506Z,0.70
2022-12-11T16:16:00.503Z,0.70
2022-12-11T16:18:28.563Z,0.70
2022-12-11T16:20:56.557Z,0.70
2022-12-11T16:23:24.750Z,0.70
2022-12-11T16:25:52.924Z,0.70
2022-12-11T16:28:22.156Z,0.60
2022-12-11T16:30:51.521Z,0.70
2022-12-11T16:33:19.576Z,0.70
2022-12-11T16:35:47.527Z,0.60
2022-12-11T16:38:15.508Z,0.70
2022-12-11T16:40:43.495Z,0.70
2022-12-11T16:43:11.841Z,0.70
2022-12-11T16:45:39.775Z,0.70
2022-12-11T16:48:09.279Z,0.60
2022-12-11T16:50:40.230Z,0.60
2022-12-11T16:53:08.259Z,0.60
2022-12-11T16:55:36.202Z,0.60
2022-12-11T16:58:04.240Z,0.70
2022-12-11T17:00:32.258Z,0.60
2022-12-11T17:03:00.359Z,0.60
2022-12-11T17:05:29.701Z,0.50
2022-12-11T17:07:58.552Z,0.50
2022-12-11T17:10:26.849Z,0.50
2022-12-11T17:12:55.149Z,0.50
2022-12-11T17:15:23.199Z,0.50
2022-12-11T17:17:51.175Z,0.50
2022-12-11T17:20:20.086Z,0.50
2022-12-11T17:22:49.591Z,0.50
2022-12-11T17:25:22.197Z,0.50
2022-12-11T17:27:50.428Z,0.60
2022-12-11T17:30:18.804Z,0.60
2022-12-11T17:32:48.695Z,0.70
2022-12-11T17:35:17.179Z,0.70
2022-12-11T17:37:45.617Z,0.70
2022-12-11T17:40:14.966Z,0.70
2022-12-11T17:42:44.904Z,0.70
2022-12-11T17:45:13.354Z,0.70
2022-12-11T17:47:41.709Z,0.70
2022-12-11T17:50:10.724Z,0.60
2022-12-11T17:52:43.976Z,0.70
2022-12-11T17:55:14.060Z,0.70
2022-12-11T17:57:42.377Z,0.70
2022-12-11T18:00:11.644Z,0.70
2022-12-11T18:02:43.082Z,0.60
2022-12-11T18:05:11.823Z,0.70
2022-12-11T18:07:40.219Z,0.70
2022-12-11T18:10:09.158Z,0.70
2022-12-11T18:12:38.740Z,0.70
2022-12-11T18:15:07.630Z,0.70
2022-12-11T18:17:35.678Z,0.70
2022-12-11T18:20:04.627Z,0.70
2022-12-11T18:22:32.629Z,0.70
2022-12-11T18:25:03.949Z,0.70
2022-12-11T18:27:36.176Z,0.70
2022-12-11T18:30:07.019Z,0.80
2022-12-11T18:32:36.089Z,0.70
2022-12-11T18:35:04.549Z,0.80
2022-12-11T18:37:32.808Z,0.80
2022-12-11T18:40:02.270Z,0.80
2022-12-11T18:42:33.050Z,0.80
2022-12-11T18:45:01.488Z,0.80
2022-12-11T18:47:31.369Z,0.80
2022-12-11T18:50:04.080Z,0.70
2022-12-11T18:52:35.361Z,0.70
2022-12-11T18:55:03.659Z,0.60
2022-12-11T18:57:32.408Z,0.60
2022-12-11T19:00:07.137Z,0.70
2022-12-11T19:02:37.326Z,0.70
2022-12-11T19:05:05.997Z,0.60
2022-12-11T19:07:34.937Z,0.70
2022-12-11T19:10:03.256Z,0.70
2022-12-11T19:12:31.491Z,0.70
2022-12-11T19:14:59.587Z,0.60
2022-12-11T19:17:27.674Z,0.60
2022-12-11T19:19:57.160Z,0.60
2022-12-11T19:22:25.423Z,0.70
2022-12-11T19:24:53.498Z,0.80
2022-12-11T19:27:21.545Z,0.80
2022-12-11T19:29:49.723Z,0.80
2022-12-11T19:32:17.892Z,0.80
2022-12-11T19:34:46.045Z,0.70
2022-12-11T19:37:15.604Z,0.70
2022-12-11T19:39:43.702Z,0.70
2022-12-11T19:42:12.665Z,0.70
2022-12-11T19:44:40.878Z,0.70
2022-12-11T19:47:09.080Z,0.70
2022-12-11T19:49:37.154Z,0.70
2022-12-11T19:52:05.566Z,0.70
2022-12-11T19:54:35.476Z,0.70
2022-12-11T19:57:04.123Z,0.70
2022-12-11T19:59:32.134Z,0.80
2022-12-11T20:02:00.219Z,0.70
2022-12-11T20:04:28.348Z,0.70
2022-12-11T20:06:56.348Z,0.70
2022-12-11T20:09:25.243Z,0.60
2022-12-11T20:11:54.902Z,0.60
2022-12-11T20:14:24.711Z,0.50
2022-12-11T20:17:13.059Z,0.50
2022-12-11T20:19:42.505Z,0.60
2022-12-11T20:22:11.126Z,0.50
2022-12-11T20:24:39.223Z,0.50
2022-12-11T20:27:09.429Z,0.70
2022-12-11T20:29:39.037Z,0.70
2022-12-11T20:32:07.378Z,0.70
2022-12-11T20:34:35.584Z,0.80
2022-12-11T20:37:03.594Z,0.70
2022-12-11T20:39:31.995Z,0.80
2022-12-11T20:42:01.180Z,0.80
2022-12-11T20:44:30.613Z,0.70
2022-12-11T20:46:58.723Z,0.80
2022-12-11T20:49:27.695Z,0.80
2022-12-11T20:51:57.395Z,0.80
2022-12-11T20:54:25.497Z,0.80
2022-12-11T20:56:53.639Z,0.80
2022-12-11T20:59:21.877Z,0.70
2022-12-11T21:01:51.578Z,0.70
2022-12-11T21:04:19.946Z,0.80
2022-12-11T21:06:55.036Z,0.80
2022-12-11T21:09:25.220Z,0.80
2022-12-11T21:11:53.602Z,0.80
2022-12-11T21:14:21.709Z,0.80
2022-12-11T21:16:51.250Z,0.80
2022-12-11T21:19:21.189Z,0.80
2022-12-11T21:21:49.712Z,0.90
2022-12-11T21:24:20.190Z,0.90
2022-12-11T21:26:48.917Z,0.80
2022-12-11T21:29:17.782Z,0.70
2022-12-11T21:31:46.050Z,0.80
2022-12-11T21:34:18.324Z,0.80
2022-12-11T21:36:54.614Z,0.80
2022-12-11T21:39:22.933Z,0.80
2022-12-11T21:41:51.298Z,0.70
2022-12-11T21:47:07.819Z,0.70
2022-12-11T21:49:40.041Z,0.60
2022-12-11T21:52:09.274Z,0.60
2022-12-11T21:54:39.308Z,0.60
2022-12-11T21:57:08.097Z,0.60
2022-12-11T21:59:36.849Z,0.60
2022-12-11T22:02:05.436Z,0.60
2022-12-11T22:04:33.469Z,0.70
2022-12-11T22:07:06.127Z,0.70
2022-12-11T22:09:34.295Z,0.70
2022-12-11T22:12:02.278Z,0.70
2022-12-11T22:14:31.311Z,0.70
2022-12-11T22:17:00.674Z,0.70
2022-12-11T22:19:32.458Z,0.70
2022-12-11T22:22:00.993Z,0.70
2022-12-11T22:24:31.151Z,0.80
2022-12-11T22:26:59.252Z,0.80
2022-12-11T22:29:27.448Z,0.70
2022-12-11T22:31:55.420Z,0.80
2022-12-11T22:34:23.599Z,0.80
2022-12-11T22:36:51.983Z,0.80
2022-12-11T22:39:20.058Z,0.80
2022-12-11T22:41:49.783Z,0.80
2022-12-11T22:44:20.651Z,0.80
2022-12-11T22:46:50.458Z,0.80
2022-12-11T22:49:19.065Z,0.80
2022-12-11T22:51:47.195Z,0.80
2022-12-11T22:54:15.343Z,0.70
2022-12-11T22:56:43.441Z,0.80
2022-12-11T22:59:13.023Z,0.70
2022-12-11T23:01:41.116Z,0.80
2022-12-11T23:04:11.521Z,0.80
2022-12-11T23:06:39.742Z,0.80
2022-12-11T23:09:08.236Z,0.80
2022-12-11T23:11:38.540Z,0.80
2022-12-11T23:14:08.294Z,0.80
2022-12-11T23:16:38.230Z,0.80
2022-12-11T23:19:06.356Z,0.80
2022-12-11T23:21:36.033Z,0.80
2022-12-11T23:24:04.425Z,0.80
2022-12-11T23:26:32.867Z,0.90
2022-12-11T23:29:01.636Z,1.00
2022-12-11T23:31:31.157Z,0.90
2022-12-11T23:34:01.358Z,0.80
2022-12-11T23:36:30.414Z,0.70
2022-12-11T23:38:58.649Z,0.70
2022-12-11T23:41:27.103Z,0.70
2022-12-11T23:43:55.370Z,0.60
2022-12-11T23:46:25.417Z,0.70
2022-12-11T23:48:54.479Z,0.60
2022-12-11T23:51:25.777Z,0.60
2022-12-11T23:53:54.677Z,0.80
2022-12-11T23:56:24.403Z,0.80
2022-12-11T23:58:53.259Z,0.70
